sensor_id;sensor_type;location;lat;lon;timestamp;pressure;altitude;pressure_sealevel;temperature;humidity
47524;BME280;33253;42.144;25.884;2023-02-10T00:00:56;102804.28;;;-6.22;88.34
47524;BME280;33253;42.144;25.884;2023-02-10T00:03:21;102808.75;;;-6.38;90.18
47524;BME280;33253;42.144;25.884;2023-02-10T00:05:47;102781.38;;;-6.47;89.95
47524;BME280;33253;42.144;25.884;2023-02-10T00:08:13;102807.69;;;-6.21;89.36
47524;BME280;33253;42.144;25.884;2023-02-10T00:10:38;102811.28;;;-6.13;88.36
47524;BME280;33253;42.144;25.884;2023-02-10T00:13:03;102805.75;;;-6.05;87.19
47524;BME280;33253;42.144;25.884;2023-02-10T00:15:29;102805.84;;;-6.16;86.62
47524;BME280;33253;42.144;25.884;2023-02-10T00:17:54;102764.59;;;-6.36;87.17
47524;BME280;33253;42.144;25.884;2023-02-10T00:20:20;102796.69;;;-6.16;87.17
47524;BME280;33253;42.144;25.884;2023-02-10T00:22:45;102773.56;;;-6.38;87.51
47524;BME280;33253;42.144;25.884;2023-02-10T00:25:10;102802.84;;;-6.44;88.85
47524;BME280;33253;42.144;25.884;2023-02-10T00:27:36;102803.59;;;-6.56;89.56
47524;BME280;33253;42.144;25.884;2023-02-10T00:30:02;102802.88;;;-6.85;91.02
47524;BME280;33253;42.144;25.884;2023-02-10T00:32:27;102675.09;;;-7.42;91.24
47524;BME280;33253;42.144;25.884;2023-02-10T00:34:52;102805.72;;;-6.65;90.98
47524;BME280;33253;42.144;25.884;2023-02-10T00:37:18;102799.28;;;-6.63;90.32
47524;BME280;33253;42.144;25.884;2023-02-10T00:39:43;102783.59;;;-6.68;90.31
47524;BME280;33253;42.144;25.884;2023-02-10T00:42:10;102795.19;;;-6.62;89.67
47524;BME280;33253;42.144;25.884;2023-02-10T00:44:36;102791.81;;;-6.69;89.47
47524;BME280;33253;42.144;25.884;2023-02-10T00:47:01;102793.97;;;-6.89;89.71
47524;BME280;33253;42.144;25.884;2023-02-10T00:49:26;102795.59;;;-6.95;89.74
47524;BME280;33253;42.144;25.884;2023-02-10T00:51:52;102793.28;;;-6.88;88.81
47524;BME280;33253;42.144;25.884;2023-02-10T00:54:17;102790.44;;;-7.19;89.17
47524;BME280;33253;42.144;25.884;2023-02-10T00:56:44;102808.31;;;-7.35;90.70
47524;BME280;33253;42.144;25.884;2023-02-10T00:59:12;102801.63;;;-7.23;90.55
47524;BME280;33253;42.144;25.884;2023-02-10T01:01:38;102730.16;;;-7.72;90.27
47524;BME280;33253;42.144;25.884;2023-02-10T01:04:04;102786.91;;;-7.55;92.06
47524;BME280;33253;42.144;25.884;2023-02-10T01:06:29;102735.69;;;-7.91;92.05
47524;BME280;33253;42.144;25.884;2023-02-10T01:08:55;102716.59;;;-8.14;91.97
47524;BME280;33253;42.144;25.884;2023-02-10T01:11:20;102770.78;;;-7.86;92.49
47524;BME280;33253;42.144;25.884;2023-02-10T01:13:45;102707.25;;;-8.20;92.53
47524;BME280;33253;42.144;25.884;2023-02-10T01:16:13;102733.66;;;-8.00;92.89
47524;BME280;33253;42.144;25.884;2023-02-10T01:18:40;102765.91;;;-7.50;91.56
47524;BME280;33253;42.144;25.884;2023-02-10T01:21:14;102778.19;;;-7.40;90.08
47524;BME280;33253;42.144;25.884;2023-02-10T01:23:40;102765.91;;;-7.44;90.01
47524;BME280;33253;42.144;25.884;2023-02-10T01:26:06;102771.66;;;-7.68;91.15
47524;BME280;33253;42.144;25.884;2023-02-10T01:28:32;102765.53;;;-7.76;92.34
47524;BME280;33253;42.144;25.884;2023-02-10T01:30:58;102772.53;;;-7.56;91.78
47524;BME280;33253;42.144;25.884;2023-02-10T01:33:23;102780.53;;;-7.53;90.98
47524;BME280;33253;42.144;25.884;2023-02-10T01:35:49;102760.91;;;-7.56;90.90
47524;BME280;33253;42.144;25.884;2023-02-10T01:38:14;102759.13;;;-7.68;91.43
47524;BME280;33253;42.144;25.884;2023-02-10T01:40:39;102744.75;;;-7.69;91.08
47524;BME280;33253;42.144;25.884;2023-02-10T01:43:13;102709.94;;;-8.02;91.54
47524;BME280;33253;42.144;25.884;2023-02-10T01:45:39;102757.78;;;-7.83;92.15
47524;BME280;33253;42.144;25.884;2023-02-10T01:48:06;102753.91;;;-7.87;92.70
47524;BME280;33253;42.144;25.884;2023-02-10T01:51:01;102697.94;;;-8.61;93.95
47524;BME280;33253;42.144;25.884;2023-02-10T01:53:29;102741.00;;;-8.47;95.22
47524;BME280;33253;42.144;25.884;2023-02-10T01:55:57;102749.84;;;-8.20;95.02
47524;BME280;33253;42.144;25.884;2023-02-10T01:58:25;102750.75;;;-7.97;93.32
47524;BME280;33253;42.144;25.884;2023-02-10T02:00:51;102735.50;;;-7.99;92.48
47524;BME280;33253;42.144;25.884;2023-02-10T02:03:17;102748.91;;;-7.87;91.43
47524;BME280;33253;42.144;25.884;2023-02-10T02:05:43;102736.63;;;-8.25;92.31
47524;BME280;33253;42.144;25.884;2023-02-10T02:08:21;102738.69;;;-8.39;93.67
47524;BME280;33253;42.144;25.884;2023-02-10T02:32:44;102733.94;;;-8.60;97.53
47524;BME280;33253;42.144;25.884;2023-02-10T02:35:15;102679.94;;;-8.98;96.57
47524;BME280;33253;42.144;25.884;2023-02-10T02:37:44;102739.84;;;-8.66;96.57
47524;BME280;33253;42.144;25.884;2023-02-10T02:40:11;102678.56;;;-8.96;96.51
47524;BME280;33253;42.144;25.884;2023-02-10T02:42:37;102635.28;;;-9.23;97.11
47524;BME280;33253;42.144;25.884;2023-02-10T02:55:45;102737.81;;;-8.57;95.59
47524;BME280;33253;42.144;25.884;2023-02-10T03:01:51;102747.13;;;-8.22;95.70
47524;BME280;33253;42.144;25.884;2023-02-10T03:04:20;102643.78;;;-8.60;94.40
47524;BME280;33253;42.144;25.884;2023-02-10T03:06:45;102748.91;;;-7.81;93.78
47524;BME280;33253;42.144;25.884;2023-02-10T03:09:13;102744.06;;;-7.62;92.87
47524;BME280;33253;42.144;25.884;2023-02-10T03:11:39;102736.94;;;-7.48;90.87
47524;BME280;33253;42.144;25.884;2023-02-10T03:14:05;102728.66;;;-7.30;88.84
47524;BME280;33253;42.144;25.884;2023-02-10T03:16:30;102691.78;;;-7.48;87.98
47524;BME280;33253;42.144;25.884;2023-02-10T03:18:56;102734.78;;;-7.22;87.03
47524;BME280;33253;42.144;25.884;2023-02-10T03:21:21;102736.25;;;-7.47;87.69
47524;BME280;33253;42.144;25.884;2023-02-10T03:23:46;102735.56;;;-7.52;88.47
47524;BME280;33253;42.144;25.884;2023-02-10T03:26:12;102724.41;;;-7.48;88.56
47524;BME280;33253;42.144;25.884;2023-02-10T03:28:37;102716.22;;;-7.64;88.79
47524;BME280;33253;42.144;25.884;2023-02-10T03:31:04;102724.94;;;-7.73;89.19
47524;BME280;33253;42.144;25.884;2023-02-10T03:33:30;102714.03;;;-7.97;90.45
47524;BME280;33253;42.144;25.884;2023-02-10T03:35:55;102732.00;;;-7.76;91.43
47524;BME280;33253;42.144;25.884;2023-02-10T03:38:22;102738.16;;;-7.69;90.45
47524;BME280;33253;42.144;25.884;2023-02-10T03:40:51;102728.56;;;-7.66;90.53
47524;BME280;33253;42.144;25.884;2023-02-10T03:43:17;102722.09;;;-7.47;90.60
47524;BME280;33253;42.144;25.884;2023-02-10T03:45:43;102718.22;;;-7.39;88.90
47524;BME280;33253;42.144;25.884;2023-02-10T03:48:08;102714.03;;;-7.27;87.84
47524;BME280;33253;42.144;25.884;2023-02-10T03:50:34;102725.13;;;-7.08;86.58
47524;BME280;33253;42.144;25.884;2023-02-10T03:52:59;102727.47;;;-7.21;85.91
47524;BME280;33253;42.144;25.884;2023-02-10T03:55:25;102727.66;;;-7.13;85.69
47524;BME280;33253;42.144;25.884;2023-02-10T03:57:50;102719.66;;;-7.11;85.83
47524;BME280;33253;42.144;25.884;2023-02-10T04:00:16;102717.69;;;-7.31;85.97
47524;BME280;33253;42.144;25.884;2023-02-10T04:02:42;102723.47;;;-7.43;86.82
47524;BME280;33253;42.144;25.884;2023-02-10T04:05:07;102725.78;;;-7.56;87.86
47524;BME280;33253;42.144;25.884;2023-02-10T04:07:33;102738.81;;;-7.58;88.38
47524;BME280;33253;42.144;25.884;2023-02-10T04:09:58;102724.38;;;-7.42;88.07
47524;BME280;33253;42.144;25.884;2023-02-10T04:12:24;102724.53;;;-7.29;88.00
47524;BME280;33253;42.144;25.884;2023-02-10T04:14:49;102687.69;;;-7.48;87.27
47524;BME280;33253;42.144;25.884;2023-02-10T04:17:14;102712.41;;;-7.21;86.84
47524;BME280;33253;42.144;25.884;2023-02-10T04:19:40;102724.06;;;-7.21;86.26
47524;BME280;33253;42.144;25.884;2023-02-10T04:22:05;102693.28;;;-7.26;85.73
47524;BME280;33253;42.144;25.884;2023-02-10T04:24:31;102711.03;;;-7.19;85.58
47524;BME280;33253;42.144;25.884;2023-02-10T04:26:56;102652.72;;;-7.35;85.83
47524;BME280;33253;42.144;25.884;2023-02-10T04:29:22;102672.22;;;-7.15;85.00
47524;BME280;33253;42.144;25.884;2023-02-10T04:31:48;102697.47;;;-7.02;83.73
47524;BME280;33253;42.144;25.884;2023-02-10T04:34:13;102706.84;;;-7.07;83.04
47524;BME280;33253;42.144;25.884;2023-02-10T04:36:39;102670.56;;;-7.44;83.29
47524;BME280;33253;42.144;25.884;2023-02-10T04:39:04;102707.59;;;-7.13;83.29
47524;BME280;33253;42.144;25.884;2023-02-10T04:41:29;102710.72;;;-7.03;83.40
47524;BME280;33253;42.144;25.884;2023-02-10T04:43:56;102713.22;;;-7.03;82.83
47524;BME280;33253;42.144;25.884;2023-02-10T04:46:21;102713.63;;;-6.94;82.57
47524;BME280;33253;42.144;25.884;2023-02-10T04:48:47;102718.22;;;-6.97;82.49
47524;BME280;33253;42.144;25.884;2023-02-10T04:51:12;102718.31;;;-7.09;82.57
47524;BME280;33253;42.144;25.884;2023-02-10T04:53:39;102720.56;;;-7.10;82.88
47524;BME280;33253;42.144;25.884;2023-02-10T04:56:06;102722.84;;;-7.06;82.60
47524;BME280;33253;42.144;25.884;2023-02-10T04:58:31;102715.81;;;-7.15;82.86
47524;BME280;33253;42.144;25.884;2023-02-10T05:00:57;102674.69;;;-7.45;83.38
47524;BME280;33253;42.144;25.884;2023-02-10T05:03:23;102718.78;;;-7.17;83.56
47524;BME280;33253;42.144;25.884;2023-02-10T05:05:49;102727.41;;;-7.09;83.72
47524;BME280;33253;42.144;25.884;2023-02-10T05:08:17;102725.34;;;-7.06;83.70
47524;BME280;33253;42.144;25.884;2023-02-10T05:10:46;102726.72;;;-7.08;83.74
47524;BME280;33253;42.144;25.884;2023-02-10T05:13:12;102687.16;;;-7.34;84.29
47524;BME280;33253;42.144;25.884;2023-02-10T05:15:37;102722.66;;;-7.13;83.98
47524;BME280;33253;42.144;25.884;2023-02-10T05:18:03;102744.38;;;-7.25;83.24
47524;BME280;33253;42.144;25.884;2023-02-10T05:20:28;102743.00;;;-7.29;83.35
47524;BME280;33253;42.144;25.884;2023-02-10T05:22:54;102742.53;;;-7.21;84.00
47524;BME280;33253;42.144;25.884;2023-02-10T05:25:19;102742.13;;;-7.29;82.91
47524;BME280;33253;42.144;25.884;2023-02-10T05:27:45;102740.50;;;-7.29;83.02
47524;BME280;33253;42.144;25.884;2023-02-10T05:30:11;102740.53;;;-7.35;83.19
47524;BME280;33253;42.144;25.884;2023-02-10T05:32:38;102708.91;;;-7.57;83.18
47524;BME280;33253;42.144;25.884;2023-02-10T05:35:04;102763.59;;;-7.37;83.05
47524;BME280;33253;42.144;25.884;2023-02-10T05:37:30;102765.69;;;-7.46;83.67
47524;BME280;33253;42.144;25.884;2023-02-10T05:39:55;102758.19;;;-7.57;83.71
47524;BME280;33253;42.144;25.884;2023-02-10T05:42:21;102757.72;;;-7.60;84.01
47524;BME280;33253;42.144;25.884;2023-02-10T05:44:46;102756.38;;;-7.64;84.49
47524;BME280;33253;42.144;25.884;2023-02-10T05:47:12;102760.47;;;-7.70;84.15
47524;BME280;33253;42.144;25.884;2023-02-10T05:49:37;102759.38;;;-7.72;84.72
47524;BME280;33253;42.144;25.884;2023-02-10T05:52:02;102770.97;;;-7.73;85.08
47524;BME280;33253;42.144;25.884;2023-02-10T05:54:28;102763.91;;;-7.70;84.90
47524;BME280;33253;42.144;25.884;2023-02-10T05:56:54;102762.75;;;-7.60;85.19
47524;BME280;33253;42.144;25.884;2023-02-10T05:59:19;102765.47;;;-7.59;84.86
47524;BME280;33253;42.144;25.884;2023-02-10T06:01:45;102696.25;;;-7.87;85.15
47524;BME280;33253;42.144;25.884;2023-02-10T06:04:11;102759.78;;;-7.52;84.49
47524;BME280;33253;42.144;25.884;2023-02-10T06:06:36;102759.09;;;-7.51;85.23
47524;BME280;33253;42.144;25.884;2023-02-10T06:09:02;102761.31;;;-7.36;85.89
47524;BME280;33253;42.144;25.884;2023-02-10T06:11:27;102769.47;;;-7.25;84.99
47524;BME280;33253;42.144;25.884;2023-02-10T06:13:53;102758.06;;;-7.18;84.86
47524;BME280;33253;42.144;25.884;2023-02-10T06:16:18;102728.84;;;-7.23;84.46
47524;BME280;33253;42.144;25.884;2023-02-10T06:18:44;102761.53;;;-6.87;84.65
47524;BME280;33253;42.144;25.884;2023-02-10T06:21:12;102756.63;;;-6.69;83.88
47524;BME280;33253;42.144;25.884;2023-02-10T06:23:38;102768.38;;;-6.51;83.48
47524;BME280;33253;42.144;25.884;2023-02-10T06:26:03;102765.09;;;-6.38;83.30
47524;BME280;33253;42.144;25.884;2023-02-10T06:28:29;102729.09;;;-6.50;83.35
47524;BME280;33253;42.144;25.884;2023-02-10T06:30:58;102765.94;;;-6.32;83.23
47524;BME280;33253;42.144;25.884;2023-02-10T06:33:23;102767.22;;;-6.17;83.83
47524;BME280;33253;42.144;25.884;2023-02-10T06:35:49;102772.38;;;-6.04;83.17
47524;BME280;33253;42.144;25.884;2023-02-10T06:38:16;102770.88;;;-5.96;82.55
47524;BME280;33253;42.144;25.884;2023-02-10T06:40:41;102769.03;;;-5.92;82.41
47524;BME280;33253;42.144;25.884;2023-02-10T06:43:07;102767.09;;;-5.81;81.64
47524;BME280;33253;42.144;25.884;2023-02-10T06:45:32;102773.13;;;-5.68;80.81
47524;BME280;33253;42.144;25.884;2023-02-10T06:48:00;102764.50;;;-5.76;80.60
47524;BME280;33253;42.144;25.884;2023-02-10T06:50:25;102770.19;;;-5.71;80.97
47524;BME280;33253;42.144;25.884;2023-02-10T06:52:51;102740.28;;;-5.75;79.78
47524;BME280;33253;42.144;25.884;2023-02-10T06:55:16;102767.72;;;-5.34;80.05
47524;BME280;33253;42.144;25.884;2023-02-10T06:57:42;102771.44;;;-5.19;79.43
47524;BME280;33253;42.144;25.884;2023-02-10T07:00:10;102706.25;;;-5.42;79.94
47524;BME280;33253;42.144;25.884;2023-02-10T07:02:37;102758.47;;;-4.91;79.54
47524;BME280;33253;42.144;25.884;2023-02-10T07:05:04;102761.88;;;-4.72;78.57
47524;BME280;33253;42.144;25.884;2023-02-10T07:07:31;102763.22;;;-4.55;78.04
47524;BME280;33253;42.144;25.884;2023-02-10T07:09:57;102759.94;;;-4.48;77.33
47524;BME280;33253;42.144;25.884;2023-02-10T07:12:22;102746.13;;;-4.45;77.42
47524;BME280;33253;42.144;25.884;2023-02-10T07:14:50;102759.06;;;-4.23;76.63
47524;BME280;33253;42.144;25.884;2023-02-10T07:17:16;102758.97;;;-4.04;76.46
47524;BME280;33253;42.144;25.884;2023-02-10T07:19:42;102750.09;;;-3.95;76.11
47524;BME280;33253;42.144;25.884;2023-02-10T07:22:07;102758.19;;;-3.85;75.13
47524;BME280;33253;42.144;25.884;2023-02-10T07:24:33;102757.03;;;-3.74;75.02
47524;BME280;33253;42.144;25.884;2023-02-10T07:26:59;102767.75;;;-3.95;75.53
47524;BME280;33253;42.144;25.884;2023-02-10T07:29:24;102766.22;;;-4.13;77.10
47524;BME280;33253;42.144;25.884;2023-02-10T07:31:50;102764.84;;;-3.98;77.37
47524;BME280;33253;42.144;25.884;2023-02-10T07:34:15;102752.91;;;-3.99;77.81
47524;BME280;33253;42.144;25.884;2023-02-10T07:36:45;102677.84;;;-4.20;77.54
47524;BME280;33253;42.144;25.884;2023-02-10T07:39:10;102755.00;;;-3.51;77.09
47524;BME280;33253;42.144;25.884;2023-02-10T07:41:36;102750.78;;;-3.70;77.09
47524;BME280;33253;42.144;25.884;2023-02-10T07:44:01;102705.97;;;-3.92;77.08
47524;BME280;33253;42.144;25.884;2023-02-10T07:46:27;102761.88;;;-3.50;77.81
47524;BME280;33253;42.144;25.884;2023-02-10T07:48:52;102748.28;;;-3.25;77.49
47524;BME280;33253;42.144;25.884;2023-02-10T07:51:18;102671.75;;;-3.90;77.73
47524;BME280;33253;42.144;25.884;2023-02-10T07:53:43;102746.94;;;-3.15;76.80
47524;BME280;33253;42.144;25.884;2023-02-10T07:56:08;102743.06;;;-3.06;77.00
47524;BME280;33253;42.144;25.884;2023-02-10T07:58:36;102744.75;;;-2.99;76.53
47524;BME280;33253;42.144;25.884;2023-02-10T08:01:06;102740.28;;;-2.95;76.54
47524;BME280;33253;42.144;25.884;2023-02-10T08:03:32;102737.31;;;-2.85;76.33
47524;BME280;33253;42.144;25.884;2023-02-10T08:05:57;102729.47;;;-2.73;76.54
47524;BME280;33253;42.144;25.884;2023-02-10T08:08:23;102724.66;;;-2.65;76.23
47524;BME280;33253;42.144;25.884;2023-02-10T08:10:48;102735.09;;;-2.49;76.21
47524;BME280;33253;42.144;25.884;2023-02-10T08:13:13;102715.63;;;-2.42;75.83
47524;BME280;33253;42.144;25.884;2023-02-10T08:15:39;102676.53;;;-2.52;75.35
47524;BME280;33253;42.144;25.884;2023-02-10T08:18:05;102722.88;;;-2.11;74.78
47524;BME280;33253;42.144;25.884;2023-02-10T08:20:31;102715.28;;;-2.11;73.48
47524;BME280;33253;42.144;25.884;2023-02-10T08:22:57;102723.75;;;-1.90;72.51
47524;BME280;33253;42.144;25.884;2023-02-10T08:25:24;102721.47;;;-1.74;72.14
47524;BME280;33253;42.144;25.884;2023-02-10T08:27:50;102716.78;;;-1.71;71.28
47524;BME280;33253;42.144;25.884;2023-02-10T08:30:16;102714.50;;;-1.55;72.29
47524;BME280;33253;42.144;25.884;2023-02-10T08:32:42;102717.88;;;-1.62;69.82
47524;BME280;33253;42.144;25.884;2023-02-10T08:35:07;102715.75;;;-1.59;71.24
47524;BME280;33253;42.144;25.884;2023-02-10T08:37:33;102715.63;;;-1.39;70.90
47524;BME280;33253;42.144;25.884;2023-02-10T08:39:58;102709.34;;;-1.21;70.34
47524;BME280;33253;42.144;25.884;2023-02-10T08:42:24;102711.88;;;-1.06;67.80
47524;BME280;33253;42.144;25.884;2023-02-10T08:44:50;102716.25;;;-1.05;73.66
47524;BME280;33253;42.144;25.884;2023-02-10T08:47:15;102721.50;;;-0.96;72.51
47524;BME280;33253;42.144;25.884;2023-02-10T08:49:41;102679.31;;;-1.10;70.81
47524;BME280;33253;42.144;25.884;2023-02-10T08:52:08;102724.94;;;-0.96;69.70
47524;BME280;33253;42.144;25.884;2023-02-10T08:54:33;102714.47;;;-0.92;66.95
47524;BME280;33253;42.144;25.884;2023-02-10T08:56:59;102718.25;;;-0.74;65.84
47524;BME280;33253;42.144;25.884;2023-02-10T08:59:25;102720.09;;;-0.66;65.15
47524;BME280;33253;42.144;25.884;2023-02-10T09:01:51;102716.63;;;-0.59;67.62
47524;BME280;33253;42.144;25.884;2023-02-10T09:04:17;102664.09;;;-0.74;65.74
47524;BME280;33253;42.144;25.884;2023-02-10T09:06:42;102694.88;;;-0.35;67.01
47524;BME280;33253;42.144;25.884;2023-02-10T09:09:14;102706.44;;;-0.08;65.60
47524;BME280;33253;42.144;25.884;2023-02-10T09:11:40;102703.16;;;0.00;65.31
47524;BME280;33253;42.144;25.884;2023-02-10T09:14:07;102695.31;;;0.13;64.99
47524;BME280;33253;42.144;25.884;2023-02-10T09:16:33;102690.69;;;0.32;64.75
47524;BME280;33253;42.144;25.884;2023-02-10T09:18:58;102679.06;;;0.34;62.94
47524;BME280;33253;42.144;25.884;2023-02-10T09:21:24;102697.56;;;0.40;62.30
47524;BME280;33253;42.144;25.884;2023-02-10T09:23:50;102666.13;;;0.40;61.88
47524;BME280;33253;42.144;25.884;2023-02-10T09:26:16;102689.03;;;0.70;62.28
47524;BME280;33253;42.144;25.884;2023-02-10T09:28:41;102685.50;;;0.84;61.88
47524;BME280;33253;42.144;25.884;2023-02-10T09:31:08;102676.16;;;0.92;61.50
47524;BME280;33253;42.144;25.884;2023-02-10T09:33:35;102668.63;;;1.08;60.04
47524;BME280;33253;42.144;25.884;2023-02-10T09:36:05;102675.38;;;1.23;59.67
47524;BME280;33253;42.144;25.884;2023-02-10T09:38:31;102660.88;;;1.38;60.83
47524;BME280;33253;42.144;25.884;2023-02-10T09:52:11;102638.69;;;1.76;58.75
47524;BME280;33253;42.144;25.884;2023-02-10T09:54:38;102640.75;;;1.88;58.06
47524;BME280;33253;42.144;25.884;2023-02-10T09:57:17;102629.31;;;2.00;56.92
47524;BME280;33253;42.144;25.884;2023-02-10T09:59:45;102626.84;;;2.09;56.29
47524;BME280;33253;42.144;25.884;2023-02-10T10:02:16;102619.78;;;2.06;55.63
47524;BME280;33253;42.144;25.884;2023-02-10T10:04:46;102606.50;;;2.18;55.24
47524;BME280;33253;42.144;25.884;2023-02-10T10:07:28;102615.94;;;2.35;56.25
47524;BME280;33253;42.144;25.884;2023-02-10T10:10:03;102593.22;;;2.04;55.05
47524;BME280;33253;42.144;25.884;2023-02-10T10:12:30;102609.16;;;2.10;55.07
47524;BME280;33253;42.144;25.884;2023-02-10T10:14:56;102611.47;;;2.00;57.38
47524;BME280;33253;42.144;25.884;2023-02-10T10:35:51;102579.06;;;2.98;51.46
47524;BME280;33253;42.144;25.884;2023-02-10T10:38:24;102538.63;;;2.85;52.33
47524;BME280;33253;42.144;25.884;2023-02-10T10:41:07;102514.06;;;2.52;55.13
47524;BME280;33253;42.144;25.884;2023-02-10T10:43:44;102550.69;;;2.95;53.24
47524;BME280;33253;42.144;25.884;2023-02-10T10:49:09;102552.38;;;3.03;53.08
47524;BME280;33253;42.144;25.884;2023-02-10T10:51:35;102534.50;;;3.03;53.02
47524;BME280;33253;42.144;25.884;2023-02-10T10:54:02;102551.06;;;3.16;53.66
47524;BME280;33253;42.144;25.884;2023-02-10T10:56:46;102544.50;;;3.35;53.55
47524;BME280;33253;42.144;25.884;2023-02-10T11:02:14;102543.44;;;3.33;52.34
47524;BME280;33253;42.144;25.884;2023-02-10T11:04:40;102533.22;;;3.33;52.91
47524;BME280;33253;42.144;25.884;2023-02-10T11:07:21;102527.13;;;2.98;54.02
47524;BME280;33253;42.144;25.884;2023-02-10T11:09:56;102518.41;;;2.87;54.91
47524;BME280;33253;42.144;25.884;2023-02-10T11:12:31;102484.16;;;2.76;54.80
47524;BME280;33253;42.144;25.884;2023-02-10T11:14:58;102509.25;;;2.98;55.64
47524;BME280;33253;42.144;25.884;2023-02-10T11:17:32;102522.00;;;2.89;53.13
47524;BME280;33253;42.144;25.884;2023-02-10T11:22:37;102520.16;;;3.30;51.76
47524;BME280;33253;42.144;25.884;2023-02-10T11:25:24;102491.50;;;3.50;51.79
47524;BME280;33253;42.144;25.884;2023-02-10T11:27:52;102497.47;;;3.68;50.47
47524;BME280;33253;42.144;25.884;2023-02-10T11:30:30;102488.59;;;3.73;51.29
47524;BME280;33253;42.144;25.884;2023-02-10T11:32:56;102498.03;;;4.01;50.94
47524;BME280;33253;42.144;25.884;2023-02-10T11:35:24;102407.81;;;3.56;49.77
47524;BME280;33253;42.144;25.884;2023-02-10T11:37:55;102482.69;;;4.01;49.21
47524;BME280;33253;42.144;25.884;2023-02-10T11:40:29;102475.63;;;4.07;49.79
47524;BME280;33253;42.144;25.884;2023-02-10T11:43:00;102482.19;;;4.31;49.50
47524;BME280;33253;42.144;25.884;2023-02-10T11:45:31;102424.84;;;4.01;48.88
47524;BME280;33253;42.144;25.884;2023-02-10T11:48:02;102469.31;;;4.49;48.45
47524;BME280;33253;42.144;25.884;2023-02-10T11:50:32;102476.63;;;4.63;47.69
47524;BME280;33253;42.144;25.884;2023-02-10T11:52:58;102466.13;;;4.60;47.29
47524;BME280;33253;42.144;25.884;2023-02-10T11:55:31;102470.78;;;4.56;48.33
47524;BME280;33253;42.144;25.884;2023-02-10T11:58:30;102467.13;;;4.71;48.19
47524;BME280;33253;42.144;25.884;2023-02-10T12:04:25;102458.09;;;4.66;47.68
47524;BME280;33253;42.144;25.884;2023-02-10T12:07:10;102447.13;;;4.30;48.42
47524;BME280;33253;42.144;25.884;2023-02-10T12:12:21;102446.13;;;4.47;47.99
47524;BME280;33253;42.144;25.884;2023-02-10T12:28:41;102429.72;;;4.17;48.69
47524;BME280;33253;42.144;25.884;2023-02-10T12:31:23;102436.91;;;4.30;48.51
47524;BME280;33253;42.144;25.884;2023-02-10T12:41:54;102426.28;;;4.45;48.05
47524;BME280;33253;42.144;25.884;2023-02-10T12:47:19;102417.06;;;4.28;47.87
47524;BME280;33253;42.144;25.884;2023-02-10T12:50:23;102413.47;;;4.26;47.91
47524;BME280;33253;42.144;25.884;2023-02-10T12:52:56;102416.88;;;3.89;49.36
47524;BME280;33253;42.144;25.884;2023-02-10T12:55:59;102411.19;;;3.83;49.02
47524;BME280;33253;42.144;25.884;2023-02-10T12:58:30;102413.72;;;3.92;48.81
47524;BME280;33253;42.144;25.884;2023-02-10T13:04:06;102415.84;;;3.96;48.59
47524;BME280;33253;42.144;25.884;2023-02-10T13:14:40;102391.16;;;4.33;47.67
47524;BME280;33253;42.144;25.884;2023-02-10T13:17:07;102391.47;;;4.36;46.62
47524;BME280;33253;42.144;25.884;2023-02-10T13:35:23;102383.38;;;3.95;49.18
47524;BME280;33253;42.144;25.884;2023-02-10T13:37:53;102390.16;;;3.77;49.61
47524;BME280;33253;42.144;25.884;2023-02-10T13:40:22;102392.72;;;3.77;49.06
47524;BME280;33253;42.144;25.884;2023-02-10T13:46:03;102365.88;;;3.54;49.41
47524;BME280;33253;42.144;25.884;2023-02-10T13:48:34;102343.56;;;3.26;49.70
47524;BME280;33253;42.144;25.884;2023-02-10T13:51:03;102388.00;;;3.54;49.35
47524;BME280;33253;42.144;25.884;2023-02-10T13:53:40;102393.66;;;3.51;49.46
47524;BME280;33253;42.144;25.884;2023-02-10T14:06:47;102394.56;;;4.06;47.41
47524;BME280;33253;42.144;25.884;2023-02-10T14:11:48;102378.34;;;4.05;45.45
47524;BME280;33253;42.144;25.884;2023-02-10T14:14:39;102384.03;;;4.12;46.25
47524;BME280;33253;42.144;25.884;2023-02-10T14:19:36;102390.63;;;4.18;46.66
47524;BME280;33253;42.144;25.884;2023-02-10T14:22:03;102406.31;;;4.13;47.05
47524;BME280;33253;42.144;25.884;2023-02-10T14:24:33;102390.56;;;3.99;47.28
47524;BME280;33253;42.144;25.884;2023-02-10T14:27:04;102375.22;;;3.99;47.12
47524;BME280;33253;42.144;25.884;2023-02-10T14:29:33;102390.44;;;3.89;46.87
47524;BME280;33253;42.144;25.884;2023-02-10T14:32:02;102383.81;;;3.91;47.84
47524;BME280;33253;42.144;25.884;2023-02-10T14:34:30;102394.53;;;3.78;48.10
47524;BME280;33253;42.144;25.884;2023-02-10T14:37:00;102397.56;;;3.74;49.33
47524;BME280;33253;42.144;25.884;2023-02-10T14:39:26;102384.03;;;3.66;49.87
47524;BME280;33253;42.144;25.884;2023-02-10T14:42:00;102375.78;;;3.51;49.62
47524;BME280;33253;42.144;25.884;2023-02-10T14:47:00;102373.53;;;3.63;49.64
47524;BME280;33253;42.144;25.884;2023-02-10T14:49:26;102372.34;;;3.60;49.94
47524;BME280;33253;42.144;25.884;2023-02-10T14:51:53;102373.09;;;3.50;49.92
47524;BME280;33253;42.144;25.884;2023-02-10T14:54:21;102375.66;;;3.50;49.27
47524;BME280;33253;42.144;25.884;2023-02-10T14:57:01;102377.00;;;3.55;49.63
47524;BME280;33253;42.144;25.884;2023-02-10T14:59:31;102372.34;;;3.51;49.52
47524;BME280;33253;42.144;25.884;2023-02-10T15:02:04;102376.00;;;3.35;49.63
47524;BME280;33253;42.144;25.884;2023-02-10T15:04:30;102375.22;;;3.36;49.88
47524;BME280;33253;42.144;25.884;2023-02-10T15:06:57;102376.13;;;3.46;50.09
47524;BME280;33253;42.144;25.884;2023-02-10T15:09:33;102366.66;;;3.36;49.31
47524;BME280;33253;42.144;25.884;2023-02-10T15:12:11;102362.03;;;3.32;50.39
47524;BME280;33253;42.144;25.884;2023-02-10T15:15:05;102381.69;;;3.42;50.83
47524;BME280;33253;42.144;25.884;2023-02-10T15:17:38;102385.13;;;3.42;51.87
47524;BME280;33253;42.144;25.884;2023-02-10T15:28:17;102376.84;;;3.62;52.10